Impacts TAF Board INFO
FOR SITUATIONAL AWARENESS. NOT TO BE USED FOR FLIGHT PLANNING PURPOSES.
IDs:

KGPT - Gulfport-Biloxi Intl, MS, US

Issued at 0520 UTC 16 Aug 2018
Updated at 1025 UTC 16 Aug 2018
Potential Impact None Slight Moderate High
Time0953Z 16/11Z 16/12Z 16/13Z 16/14Z 16/15Z 16/16Z 16/17Z 16/18Z 16/19Z 16/20Z 16/21Z 16/22Z 16/23Z>>
Type OBS PRVL PRVL PRVL PRVL PRVL PRVL PRVL PRVL PRVL PRVL PRVL PRVL PRVL
VIS 10 >6 >6 >6 >6 >6 >6 >6 >6 >6 >6 >6 >6 >6
CIG -- 60 60 60 60 60 60 90 90 90 90 90 90 90
Cover FEW BKN BKN BKN BKN BKN BKN BKN BKN BKN BKN BKN BKN BKN
FltCat VFR VFR VFR VFR VFR VFR VFR VFR VFR VFR VFR VFR VFR VFR
WX -- -- -- -- -- -- -- VCTS VCTS VCTS VCTS VCTS VCTS VCTS
WDir VRB 170 170 170 170 170 170 160 160 160 160 160 160 160
WSpd 0 5 5 5 5 5 5 7 7 7 7 7 7 7
WGst -- -- -- -- -- -- -- -- -- -- -- -- -- --

Raw TAF
KGPT 160520Z 1606/1706 17005KT P6SM FEW025 SCT035 BKN060
  FM161700 16007KT P6SM VCTS SCT035CB BKN090
  FM170200 17005KT P6SM SCT250


Raw METAR
KGPT 160953Z AUTO 00000KT 10SM FEW028 FEW055 27/24 A3003 RMK AO2 LTG DSNT S SLP170 T02670244
KGPT 160853Z AUTO 27003KT 10SM FEW028 27/24 A3003 RMK AO2 LTG DSNT S SLP167 T02670244 55000
KGPT 160830Z AUTO 00000KT 10SM FEW024 SCT030 BKN060 27/24 A3003 RMK AO2 T02720244
KGPT 160821Z AUTO 00000KT 10SM BKN025 BKN030 BKN055 27/24 A3003 RMK AO2 T02720244
KGPT 160753Z AUTO 00000KT 10SM SCT025 BKN039 BKN046 27/24 A3002 RMK AO2 LTG DSNT S AND SW SLP166 T02720244

METAR Board
Radar Display
Forecast Discussion

FOR SITUATIONAL AWARENESS. NOT TO BE USED FOR FLIGHT PLANNING PURPOSES.